ROMMA est une association bénévole à but non lucratif. Votre soutien est indispensable : ADHERER à ROMMA ou FAIRE un DON

Die - (26, Drôme)

Diois (400 m)   Longitude: 5° 21' 55"E   Latitude: 44° 45' 16"N Station partenaire n°159
 

Détail journalier du     <<     >>

Température Precipitation Humidité Pression Vent Dir Rafale Dir. rafale Ensol.
Heure (°C) (mm) (%) (hPa) (km/h) (km/h) (min)
01:00 0.709510282SSE5OSO0
02:00 1.209410271S5ONO0
03:00 1.409510271S3S0
04:00 1.809510261S3S0
05:00 1.809410251S3S0
06:00 2.0095102503S0
07:00 2.309510251S3S0
08:00 2.709510251S5S0
09:00 3.309510261S5SSO0
10:00 4.809310261OSO3OSO0
11:00 6.608910261OSO3OSO0
12:00 9.107910251SSO3OSO20
13:00 11.107210242ONO5ONO40
14:00 12.406510233NO6NNO60
15:00 13.306010222O8NO30
16:00 13.305810223O8O40
17:00 11.606810227NO15NNO10
18:00 10.406910227NNO13NNO0
19:00 9.307410234N10NNO0
20:00 8.107910232NNO8NNE0
21:00 6.108410231NNO3NNO0
22:00 5.1087102402NNO0
23:00 3.2090102403NNO0
minuit 2.2092102302NNO0

Graphique du 24-01-2020

 

Serveur OMMA